Marilandia, Brazil
Current Conditions -  °F | °C
As of 4:00 PM on Thursday 27 Nov 2014 (Local Time) from SBVT Reporting Station
Few Clouds Few Clouds  
Wind Chill: 84°   Ceiling: Unl
Heat Index: 87°   Visibility: 6mi
Dew Point: 68°   Wind: 21mph
Humidity: 58%   Direction: 50°NE
Pressure: 29.8"   Gusts: NA
Location:  19.42°S, 40.52°W
Report Text: SBVT 271800Z 05018KT 9999 FEW030 29/20 Q1009 WS R05
Loading
Personal Weather Stations






























Interactive Weather Map New forecast layout! Learn more

10-Day Weather Forecast

Advertisements
Track Severe Weather on mobile